Time;durP1;ratioP1;P1;durP2;ratioP2;P2;SDS_P1;SDS_P2;PMS_P1;PMS_P2;Temp;Humidity;BMP_temperature;BMP_pressure;BME280_temperature;BME280_humidity;BME280_pressure;Samples;Min_cycle;Max_cycle;Signal;HPM_P1;HPM_P2
2022/07/22 00:01:57;;;;;;;8.48;4.22;;;17.70;99.90;;;;;;6244202;22;20001;-88
2022/07/22 00:04:23;;;;;;;12.20;4.60;;;17.60;99.90;;;;;;6272347;22;20008;-88
2022/07/22 00:06:48;;;;;;;6.72;4.05;;;17.60;99.90;;;;;;6271363;22;20007;-87
2022/07/22 00:09:14;;;;;;;10.32;5.00;;;17.60;99.90;;;;;;6271216;22;20269;-88
2022/07/22 00:11:40;;;;;;;5.10;3.97;;;17.60;99.90;;;;;;6271050;22;20440;-88
2022/07/22 00:14:05;;;;;;;13.32;5.82;;;17.70;99.90;;;;;;6270777;22;20401;-88
2022/07/22 00:16:32;;;;;;;9.70;5.10;;;17.70;99.90;;;;;;6271210;22;20428;-87
2022/07/22 00:18:58;;;;;;;8.15;5.28;;;17.60;99.90;;;;;;6244103;22;20015;-88
2022/07/22 00:21:24;;;;;;;10.30;4.80;;;17.50;99.90;;;;;;6271998;22;20000;-87
2022/07/22 00:23:51;;;;;;;9.77;4.80;;;17.50;99.90;;;;;;6272242;22;20020;-87
2022/07/22 00:26:17;;;;;;;9.57;5.30;;;17.60;99.90;;;;;;6270965;22;20003;-86
2022/07/22 00:28:43;;;;;;;11.18;4.97;;;17.60;99.90;;;;;;6270848;22;20329;-87
2022/07/22 00:31:09;;;;;;;9.05;5.10;;;17.60;99.90;;;;;;6243945;22;20102;-87
2022/07/22 00:33:34;;;;;;;10.48;5.30;;;17.60;99.90;;;;;;6243970;22;20340;-87
2022/07/22 00:36:00;;;;;;;8.50;4.75;;;17.60;99.90;;;;;;6270996;22;19999;-87
2022/07/22 00:38:26;;;;;;;16.77;5.35;;;17.70;99.90;;;;;;6271915;22;20026;-87
2022/07/22 00:40:52;;;;;;;11.48;5.20;;;17.70;99.90;;;;;;6271971;22;20000;-87
2022/07/22 00:43:17;;;;;;;10.68;4.78;;;17.70;99.90;;;;;;6270770;22;20061;-88
2022/07/22 00:45:43;;;;;;;9.10;5.10;;;17.70;99.90;;;;;;6244277;22;20502;-87
2022/07/22 00:48:09;;;;;;;10.02;5.70;;;17.70;99.90;;;;;;6271029;22;20005;-86
2022/07/22 00:50:34;;;;;;;13.13;5.40;;;17.70;99.90;;;;;;6243753;22;20004;-87
2022/07/22 00:53:01;;;;;;;9.82;5.32;;;17.70;99.90;;;;;;6271064;22;20000;-87
2022/07/22 00:55:28;;;;;;;11.07;5.00;;;17.50;99.90;;;;;;6271975;22;20045;-87
2022/07/22 00:57:53;;;;;;;9.15;5.55;;;17.60;99.90;;;;;;6273555;22;20070;-86
2022/07/22 01:00:21;;;;;;;13.13;5.68;;;17.50;99.90;;;;;;6272981;22;20337;-87
2022/07/22 01:02:47;;;;;;;11.27;5.70;;;17.40;99.90;;;;;;6272907;22;20000;-88
2022/07/22 01:05:13;;;;;;;9.23;5.70;;;17.50;99.90;;;;;;6272805;22;20253;-87
2022/07/22 01:07:38;;;;;;;11.45;5.32;;;17.40;99.90;;;;;;6272708;22;19996;-87
2022/07/22 01:10:06;;;;;;;11.40;5.45;;;17.50;99.90;;;;;;6272637;22;20007;-88
2022/07/22 01:12:31;;;;;;;10.50;5.05;;;17.60;99.90;;;;;;6272479;22;20006;-88
2022/07/22 01:14:58;;;;;;;8.25;4.88;;;17.60;99.90;;;;;;6273895;22;20004;-88
2022/07/22 01:17:24;;;;;;;12.73;6.05;;;17.60;99.90;;;;;;6273801;22;20087;-87
2022/07/22 01:19:50;;;;;;;12.90;4.82;;;17.40;99.90;;;;;;6271260;22;20043;-87
2022/07/22 01:22:16;;;;;;;9.32;4.78;;;17.50;99.90;;;;;;6272631;22;20012;-87
2022/07/22 01:24:42;;;;;;;10.75;5.28;;;17.50;99.90;;;;;;6272468;22;20436;-87
2022/07/22 01:27:07;;;;;;;12.35;5.57;;;17.50;99.90;;;;;;6272396;22;20023;-88
2022/07/22 01:29:33;;;;;;;12.77;6.25;;;17.50;99.90;;;;;;6272617;22;20003;-87
2022/07/22 01:31:59;;;;;;;14.10;6.10;;;17.50;99.90;;;;;;6273400;22;20026;-86
2022/07/22 01:34:26;;;;;;;12.00;6.53;;;17.40;99.90;;;;;;6273362;22;20010;-87
2022/07/22 01:36:51;;;;;;;9.27;5.40;;;17.30;99.90;;;;;;6272338;22;20023;-87
2022/07/22 01:39:17;;;;;;;8.90;5.50;;;17.30;99.90;;;;;;6272685;22;20008;-87
2022/07/22 01:41:43;;;;;;;8.70;5.43;;;17.40;99.90;;;;;;6272154;22;20040;-87
2022/07/22 01:44:09;;;;;;;13.20;5.82;;;17.40;99.90;;;;;;6272537;22;20010;-87
2022/07/22 01:46:35;;;;;;;10.50;5.50;;;17.30;99.90;;;;;;6245472;22;20432;-88
2022/07/22 01:49:01;;;;;;;14.00;6.50;;;17.30;99.90;;;;;;6245176;22;20411;-87
2022/07/22 01:51:27;;;;;;;13.45;6.15;;;17.30;99.90;;;;;;6273299;22;20379;-87
2022/07/22 01:53:53;;;;;;;11.60;5.63;;;17.30;99.90;;;;;;6272439;22;19999;-87
2022/07/22 01:56:18;;;;;;;9.07;5.35;;;17.40;99.90;;;;;;6245155;22;20000;-87
2022/07/22 01:58:44;;;;;;;10.23;5.80;;;17.30;99.90;;;;;;6272396;22;20114;-87
2022/07/22 02:01:10;;;;;;;12.43;5.63;;;;;;;;;;6245198;22;20421;-88
2022/07/22 02:03:36;;;;;;;12.68;5.78;;;17.40;99.90;;;;;;6272279;22;20004;-87
2022/07/22 02:06:03;;;;;;;12.05;6.60;;;17.30;99.90;;;;;;6270761;22;20007;-88
2022/07/22 02:08:29;;;;;;;14.05;6.45;;;17.20;99.90;;;;;;6245695;22;20014;-87
2022/07/22 02:10:54;;;;;;;12.02;7.20;;;17.20;99.90;;;;;;6272109;22;20000;-87
2022/07/22 02:13:20;;;;;;;17.10;7.20;;;17.10;99.90;;;;;;6245174;22;20004;-87
2022/07/22 02:15:46;;;;;;;10.50;6.78;;;;;;;;;;6272294;22;20027;-87
2022/07/22 02:18:17;;;;;;;16.38;7.75;;;17.10;99.90;;;;;;6271974;22;20006;-87
2022/07/22 02:20:44;;;;;;;13.13;7.45;;;17.20;99.90;;;;;;6244924;22;20008;-88
2022/07/22 02:23:13;;;;;;;14.50;7.00;;;17.20;99.90;;;;;;6271817;22;20007;-87
2022/07/22 02:25:40;;;;;;;11.20;7.10;;;17.20;99.90;;;;;;6272028;22;20004;-87
2022/07/22 02:28:07;;;;;;;16.00;7.38;;;17.10;99.90;;;;;;6272049;22;20054;-87
2022/07/22 02:30:32;;;;;;;16.67;7.65;;;17.20;99.90;;;;;;6271851;22;20437;-87
2022/07/22 02:32:58;;;;;;;12.50;7.15;;;17.20;99.90;;;;;;6273365;22;20059;-86
2022/07/22 02:35:24;;;;;;;13.27;6.95;;;17.30;99.90;;;;;;6271699;22;19999;-87
2022/07/22 02:37:50;;;;;;;14.07;7.15;;;17.20;99.90;;;;;;6271546;22;20011;-87
2022/07/22 02:40:16;;;;;;;14.32;6.97;;;17.20;99.90;;;;;;6272370;22;20007;-87
2022/07/22 02:42:42;;;;;;;11.90;6.97;;;17.20;99.90;;;;;;6271949;22;20000;-87
2022/07/22 02:45:08;;;;;;;17.38;7.22;;;17.20;99.90;;;;;;6271779;22;20003;-87
2022/07/22 02:47:34;;;;;;;15.38;7.60;;;17.20;99.90;;;;;;6271829;22;20069;-87
2022/07/22 02:49:59;;;;;;;14.65;7.80;;;17.30;99.90;;;;;;6272778;22;20384;-87
2022/07/22 02:52:25;;;;;;;13.88;7.85;;;17.30;99.90;;;;;;6271602;22;20421;-86
2022/07/22 02:54:51;;;;;;;13.63;6.82;;;17.30;99.90;;;;;;6271330;22;20011;-89
2022/07/22 02:57:16;;;;;;;13.35;8.25;;;17.30;99.90;;;;;;6244771;22;20000;-87
2022/07/22 02:59:43;;;;;;;15.60;8.27;;;17.30;99.90;;;;;;6271679;22;20460;-88
2022/07/22 03:02:08;;;;;;;17.15;7.43;;;17.30;99.90;;;;;;6271412;22;20400;-87
2022/07/22 03:04:34;;;;;;;14.05;7.50;;;17.30;99.90;;;;;;6271907;22;20027;-87
2022/07/22 03:07:00;;;;;;;15.20;8.30;;;17.30;99.90;;;;;;6245306;22;20011;-88
2022/07/22 03:09:25;;;;;;;14.75;8.20;;;17.30;99.90;;;;;;6272094;22;20003;-88
2022/07/22 03:11:51;;;;;;;15.80;7.85;;;17.10;99.90;;;;;;6244571;22;20480;-88
2022/07/22 03:14:18;;;;;;;11.68;7.00;;;17.20;99.90;;;;;;6271580;22;20069;-89
2022/07/22 03:16:44;;;;;;;13.52;8.00;;;17.20;99.90;;;;;;6271733;22;20010;-87
2022/07/22 03:19:10;;;;;;;16.92;8.68;;;17.20;99.90;;;;;;6243856;22;20413;-87
2022/07/22 03:21:36;;;;;;;13.63;8.45;;;17.20;99.90;;;;;;6271447;22;20329;-88
2022/07/22 03:24:02;;;;;;;13.80;8.50;;;17.20;99.90;;;;;;6272569;22;20006;-88
2022/07/22 03:26:27;;;;;;;13.38;8.35;;;17.20;99.90;;;;;;6271561;22;20003;-88
2022/07/22 03:28:53;;;;;;;13.30;8.00;;;17.20;99.90;;;;;;6271533;22;20000;-87
2022/07/22 03:31:19;;;;;;;14.27;8.57;;;17.20;99.90;;;;;;6271551;22;19999;-87
2022/07/22 03:33:44;;;;;;;16.52;8.52;;;17.10;99.90;;;;;;6271565;22;20007;-88
2022/07/22 03:36:10;;;;;;;15.98;9.43;;;17.10;99.90;;;;;;6271238;22;19996;-88
2022/07/22 03:38:37;;;;;;;15.88;9.30;;;17.10;99.90;;;;;;6271350;22;20018;-87
2022/07/22 03:41:03;;;;;;;21.42;11.13;;;17.10;99.90;;;;;;6245427;22;20082;-87
2022/07/22 03:43:30;;;;;;;17.35;9.38;;;17.10;99.90;;;;;;6271121;22;20000;-88
2022/07/22 03:45:56;;;;;;;13.77;8.65;;;17.00;99.90;;;;;;6271369;22;20003;-87
2022/07/22 03:48:21;;;;;;;12.98;8.57;;;17.10;99.90;;;;;;6271188;22;20059;-88
2022/07/22 03:50:49;;;;;;;16.42;9.50;;;17.20;99.90;;;;;;6244023;22;20061;-87
2022/07/22 03:53:15;;;;;;;16.15;9.32;;;17.10;99.90;;;;;;6271352;22;20038;-88
2022/07/22 03:55:41;;;;;;;16.17;8.75;;;17.10;99.90;;;;;;6271358;22;19999;-88
2022/07/22 03:58:07;;;;;;;15.82;9.63;;;17.10;99.90;;;;;;6271184;22;20011;-88
2022/07/22 04:00:32;;;;;;;19.60;10.07;;;17.20;99.90;;;;;;6271761;22;20043;-87
2022/07/22 04:02:58;;;;;;;16.85;9.55;;;17.20;99.90;;;;;;6270984;22;19996;-87
2022/07/22 04:05:24;;;;;;;15.65;8.68;;;17.20;99.90;;;;;;6243681;22;20085;-87
2022/07/22 04:07:49;;;;;;;15.85;9.30;;;17.10;99.90;;;;;;6243758;22;20003;-87
2022/07/22 04:10:15;;;;;;;18.85;9.18;;;17.10;99.90;;;;;;6244131;22;20003;-87
2022/07/22 04:12:41;;;;;;;22.75;10.98;;;;;;;;;;6270966;22;20087;-87
2022/07/22 04:15:08;;;;;;;15.90;10.23;;;17.10;99.90;;;;;;6271609;22;20030;-87
2022/07/22 04:17:34;;;;;;;15.13;9.18;;;17.10;99.90;;;;;;6272020;22;20000;-87
2022/07/22 04:20:00;;;;;;;18.48;9.77;;;17.10;99.90;;;;;;6270929;22;20516;-87
2022/07/22 04:22:29;;;;;;;15.27;9.57;;;17.10;99.90;;;;;;6271010;22;20014;-87
2022/07/22 04:24:55;;;;;;;17.20;8.70;;;;;;;;;;6271506;22;20048;-87
2022/07/22 04:27:21;;;;;;;17.75;9.65;;;17.10;99.90;;;;;;6271046;22;20035;-87
2022/07/22 04:29:47;;;;;;;16.77;10.30;;;17.10;99.90;;;;;;6271019;22;19999;-87
2022/07/22 04:32:14;;;;;;;15.43;8.82;;;17.00;99.90;;;;;;6272661;22;20003;-87
2022/07/22 04:34:41;;;;;;;17.27;10.20;;;17.00;99.90;;;;;;6273243;22;20440;-88
2022/07/22 04:37:07;;;;;;;19.02;10.82;;;17.10;99.90;;;;;;6246865;22;20352;-87
2022/07/22 04:39:33;;;;;;;22.42;11.43;;;17.00;99.90;;;;;;6273163;22;20448;-87
2022/07/22 04:41:59;;;;;;;17.60;10.10;;;17.00;99.90;;;;;;6272757;22;20058;-87
2022/07/22 04:44:24;;;;;;;18.50;11.07;;;17.00;99.90;;;;;;6272852;22;20010;-87
2022/07/22 04:46:50;;;;;;;583.75;326.15;;;17.10;99.90;;;;;;6272784;22;19995;-87
2022/07/22 04:49:15;;;;;;;16.98;10.13;;;16.90;99.90;;;;;;6273032;22;20000;-87
2022/07/22 04:51:41;;;;;;;19.35;11.27;;;16.90;99.90;;;;;;6272987;22;20063;-87
2022/07/22 04:54:07;;;;;;;22.42;14.10;;;17.00;99.90;;;;;;6246865;22;20077;-86
2022/07/22 04:56:32;;;;;;;18.98;11.43;;;17.00;99.90;;;;;;6245819;22;20000;-87
2022/07/22 04:58:58;;;;;;;24.40;12.35;;;17.00;99.90;;;;;;6272709;22;20012;-86
2022/07/22 05:01:24;;;;;;;19.60;11.55;;;17.00;99.90;;;;;;6272739;22;20353;-87
2022/07/22 05:03:51;;;;;;;18.45;11.05;;;16.90;99.90;;;;;;6245047;22;20464;-87
2022/07/22 05:06:17;;;;;;;22.13;10.80;;;17.00;99.90;;;;;;6246261;22;20078;-87
2022/07/22 05:08:43;;;;;;;17.90;11.23;;;17.00;99.90;;;;;;6272778;22;20011;-87
2022/07/22 05:11:09;;;;;;;18.17;11.15;;;16.90;99.90;;;;;;6246535;22;20004;-87
2022/07/22 05:13:35;;;;;;;17.75;10.20;;;16.90;99.90;;;;;;6272564;22;20008;-86
2022/07/22 05:16:04;;;;;;;16.15;10.00;;;17.00;99.90;;;;;;6272590;22;20250;-87
2022/07/22 05:18:30;;;;;;;19.13;10.98;;;16.90;99.90;;;;;;6272599;22;20826;-87
2022/07/22 05:20:56;;;;;;;1999.90;999.90;;;16.90;99.90;;;;;;6272703;22;20030;-87
2022/07/22 05:23:22;;;;;;;1999.90;999.90;;;16.90;99.90;;;;;;6272575;22;20447;-86
2022/07/22 05:25:47;;;;;;;16.70;11.20;;;17.00;99.90;;;;;;6272362;22;20002;-87
2022/07/22 05:28:13;;;;;;;20.25;12.18;;;17.00;99.90;;;;;;6272216;22;20002;-87
2022/07/22 05:30:39;;;;;;;25.98;10.63;;;17.00;99.90;;;;;;6273470;22;20383;-87
2022/07/22 05:33:04;;;;;;;22.67;10.73;;;17.00;99.90;;;;;;6272587;22;20027;-86
2022/07/22 05:35:30;;;;;;;15.60;10.02;;;17.00;99.90;;;;;;6272976;22;20007;-87
2022/07/22 05:37:56;;;;;;;18.13;11.43;;;17.10;99.90;;;;;;6245172;22;20385;-87
2022/07/22 05:40:21;;;;;;;20.05;10.55;;;17.20;99.90;;;;;;6272137;22;20011;-87
2022/07/22 05:42:47;;;;;;;15.85;10.10;;;17.20;99.90;;;;;;6245122;22;20356;-86
2022/07/22 05:45:13;;;;;;;18.02;10.88;;;17.20;99.90;;;;;;6245358;22;20007;-87
2022/07/22 05:47:38;;;;;;;21.80;10.93;;;17.20;99.90;;;;;;6273484;22;20029;-86
2022/07/22 05:50:05;;;;;;;17.17;11.32;;;17.20;99.90;;;;;;6272468;22;20015;-87
2022/07/22 05:52:30;;;;;;;18.45;10.43;;;17.20;99.90;;;;;;6245296;22;20008;-87
2022/07/22 05:54:59;;;;;;;15.18;10.57;;;17.20;99.90;;;;;;6272108;22;20502;-86
2022/07/22 05:57:25;;;;;;;18.83;10.43;;;17.30;99.90;;;;;;6245086;22;20077;-87
2022/07/22 05:59:51;;;;;;;17.38;10.27;;;;;;;;;;6271912;22;20344;-86
2022/07/22 06:02:16;;;;;;;15.50;10.10;;;17.40;99.90;;;;;;6272378;22;20416;-87
2022/07/22 06:04:42;;;;;;;15.98;9.70;;;17.50;99.90;;;;;;6246229;22;20004;-87
2022/07/22 06:07:08;;;;;;;14.18;9.55;;;17.70;99.90;;;;;;6272521;22;20455;-87
2022/07/22 06:09:34;;;;;;;14.32;9.05;;;17.80;99.90;;;;;;6245309;22;20014;-87
2022/07/22 06:12:00;;;;;;;18.15;10.98;;;17.90;99.90;;;;;;6272080;22;20004;-87
2022/07/22 06:14:25;;;;;;;17.60;10.38;;;17.90;99.90;;;;;;6244835;22;20006;-87
2022/07/22 06:16:51;;;;;;;17.20;9.73;;;17.90;99.90;;;;;;6272675;22;20324;-87
2022/07/22 06:19:16;;;;;;;17.85;10.93;;;17.90;99.90;;;;;;6272144;22;20516;-88
2022/07/22 06:21:42;;;;;;;17.95;11.23;;;18.00;99.90;;;;;;6240980;23;20012;-87
2022/07/22 06:24:08;;;;;;;14.85;9.70;;;17.90;99.90;;;;;;6241516;23;20077;-87
2022/07/22 06:26:33;;;;;;;19.13;10.25;;;18.00;99.90;;;;;;6239915;23;20633;-87
2022/07/22 06:28:59;;;;;;;16.98;10.45;;;18.00;99.90;;;;;;6241421;23;20000;-87
2022/07/22 06:31:24;;;;;;;20.08;11.20;;;18.00;99.90;;;;;;6239852;23;20018;-87
2022/07/22 06:33:51;;;;;;;15.75;9.40;;;17.90;99.90;;;;;;6240240;23;20091;-87
2022/07/22 06:36:17;;;;;;;16.48;9.57;;;18.10;99.90;;;;;;6239765;23;20337;-87
2022/07/22 06:38:44;;;;;;;17.40;9.10;;;;;;;;;;6266649;22;20008;-87
2022/07/22 06:41:10;;;;;;;17.40;9.65;;;18.20;99.90;;;;;;6241284;23;20004;-93
2022/07/22 06:43:36;;;;;;;16.83;9.93;;;18.20;99.90;;;;;;6241344;22;20804;-84
2022/07/22 06:46:02;;;;;;;14.95;9.23;;;18.30;99.90;;;;;;6242096;23;20306;-87
2022/07/22 06:48:27;;;;;;;19.70;11.07;;;18.30;99.90;;;;;;6243871;23;20001;-91
2022/07/22 06:50:53;;;;;;;13.75;8.93;;;18.30;99.90;;;;;;6241778;23;20028;-91
2022/07/22 06:53:19;;;;;;;15.98;9.93;;;18.50;99.90;;;;;;6241310;22;19996;-91
2022/07/22 06:55:45;;;;;;;16.55;9.82;;;18.40;99.90;;;;;;6242660;22;20008;-83
2022/07/22 06:58:11;;;;;;;17.23;9.88;;;18.60;99.90;;;;;;6242030;22;20000;-90
2022/07/22 07:00:37;;;;;;;22.33;10.00;;;18.50;99.90;;;;;;6241725;23;20011;-85
2022/07/22 07:03:02;;;;;;;24.20;10.50;;;18.50;99.90;;;;;;6241484;22;20445;-90
2022/07/22 07:05:29;;;;;;;17.30;10.73;;;18.50;99.90;;;;;;6240527;23;20004;-88
2022/07/22 07:07:55;;;;;;;17.02;9.75;;;18.30;99.90;;;;;;6240219;22;20008;-89
2022/07/22 07:10:22;;;;;;;22.15;10.02;;;18.40;99.90;;;;;;6239930;22;20066;-91
2022/07/22 07:12:48;;;;;;;15.18;8.68;;;18.30;99.90;;;;;;6239823;22;20445;-83
2022/07/22 07:15:13;;;;;;;22.05;9.55;;;18.50;99.90;;;;;;6240962;23;20046;-84
2022/07/22 07:17:39;;;;;;;16.58;8.95;;;18.50;99.90;;;;;;6240360;23;20029;-91
2022/07/22 07:20:06;;;;;;;17.88;9.35;;;18.70;99.90;;;;;;6243284;23;20040;-89
2022/07/22 07:22:32;;;;;;;15.10;8.93;;;18.70;99.90;;;;;;6261675;22;20007;-87
2022/07/22 07:25:06;;;;;;;21.20;9.27;;;19.00;99.90;;;;;;6272013;22;20004;-84
2022/07/22 07:27:33;;;;;;;16.90;7.95;;;19.10;99.90;;;;;;6270424;22;20000;-88
2022/07/22 07:29:58;;;;;;;16.83;9.05;;;19.30;99.90;;;;;;6270427;22;20079;-88
2022/07/22 07:32:24;;;;;;;16.60;9.23;;;19.20;99.90;;;;;;6270528;22;20050;-88
2022/07/22 07:34:50;;;;;;;18.08;9.60;;;;;;;;;;6270252;22;20003;-88
2022/07/22 07:37:16;;;;;;;16.20;8.57;;;19.20;99.90;;;;;;6270944;22;20027;-83
2022/07/22 07:39:41;;;;;;;13.02;8.85;;;19.30;99.90;;;;;;6271201;22;20043;-84
2022/07/22 07:42:07;;;;;;;16.63;9.23;;;19.20;99.90;;;;;;6269892;22;19996;-86
2022/07/22 07:44:33;;;;;;;17.60;7.75;;;19.20;99.90;;;;;;6270402;22;20010;-86
2022/07/22 07:46:58;;;;;;;14.55;8.23;;;19.20;99.90;;;;;;6270684;22;20000;-88
2022/07/22 07:49:24;;;;;;;17.35;8.07;;;19.30;99.90;;;;;;6270788;22;20053;-90
2022/07/22 07:51:50;;;;;;;20.80;8.15;;;19.50;99.90;;;;;;6270935;22;19999;-90
2022/07/22 07:54:16;;;;;;;16.25;8.50;;;19.60;99.90;;;;;;6271141;22;20008;-84
2022/07/22 07:56:42;;;;;;;13.05;8.60;;;19.70;99.90;;;;;;6236530;22;20015;-90
2022/07/22 07:59:07;;;;;;;13.63;8.57;;;19.80;99.90;;;;;;6269885;22;20444;-83
2022/07/22 08:01:33;;;;;;;13.85;8.48;;;19.60;99.90;;;;;;6271583;22;20371;-92
2022/07/22 08:03:58;;;;;;;12.85;8.23;;;19.50;99.90;;;;;;6270684;22;20011;-92
2022/07/22 08:06:24;;;;;;;13.25;8.55;;;19.50;99.90;;;;;;6271786;22;20034;-88
2022/07/22 08:08:50;;;;;;;13.30;8.75;;;19.60;99.90;;;;;;6270693;22;20026;-89
2022/07/22 08:11:16;;;;;;;13.95;8.63;;;19.60;99.90;;;;;;6271375;22;20389;-82
2022/07/22 08:13:41;;;;;;;13.40;8.15;;;19.60;99.90;;;;;;6272061;22;20008;-91
2022/07/22 08:16:07;;;;;;;17.33;8.60;;;19.60;99.90;;;;;;6270850;22;20106;-87
2022/07/22 08:18:33;;;;;;;16.25;8.48;;;19.50;99.90;;;;;;6270126;22;20079;-84
2022/07/22 08:20:59;;;;;;;12.90;8.93;;;19.50;99.90;;;;;;6270452;22;20008;-89
2022/07/22 08:23:24;;;;;;;20.88;9.63;;;19.40;99.90;;;;;;6270315;22;20011;-83
2022/07/22 08:25:50;;;;;;;21.23;8.80;;;19.40;99.90;;;;;;6269567;22;20007;-84
2022/07/22 08:28:16;;;;;;;14.68;8.90;;;19.30;99.90;;;;;;6271473;22;20070;-83
2022/07/22 08:30:43;;;;;;;13.25;8.13;;;19.30;99.90;;;;;;6271431;22;20006;-84
2022/07/22 08:33:09;;;;;;;18.60;8.52;;;19.40;99.90;;;;;;6271091;22;20053;-85
2022/07/22 08:35:35;;;;;;;15.73;8.32;;;19.50;99.90;;;;;;6271328;22;20079;-84
2022/07/22 08:38:01;;;;;;;18.92;7.75;;;19.50;99.90;;;;;;6271189;22;20010;-92
2022/07/22 08:40:27;;;;;;;15.65;7.97;;;19.70;99.90;;;;;;6270434;22;20003;-84
2022/07/22 08:42:53;;;;;;;17.63;8.82;;;19.80;99.90;;;;;;6270890;22;19996;-85
2022/07/22 08:45:20;;;;;;;14.75;7.95;;;19.50;99.90;;;;;;6270844;22;20007;-84
2022/07/22 08:47:47;;;;;;;19.67;8.73;;;19.60;99.90;;;;;;6245043;22;20061;-91
2022/07/22 08:50:13;;;;;;;14.10;8.20;;;19.80;99.90;;;;;;6272769;22;20041;-86
2022/07/22 08:52:39;;;;;;;15.45;8.02;;;19.70;99.90;;;;;;6271896;22;20055;-85
2022/07/22 08:55:07;;;;;;;18.08;10.25;;;19.70;99.90;;;;;;6272202;22;20010;-85
2022/07/22 08:57:33;;;;;;;21.65;9.45;;;19.40;99.90;;;;;;6270848;22;20027;-92
2022/07/22 09:00:00;;;;;;;31.63;9.88;;;19.40;99.90;;;;;;6271492;22;20065;-86
2022/07/22 09:02:27;;;;;;;20.30;9.50;;;19.50;99.90;;;;;;6270491;22;20020;-85
2022/07/22 09:05:01;;;;;;;19.45;9.52;;;19.50;99.90;;;;;;6270570;22;20237;-88
2022/07/22 09:07:38;;;;;;;18.70;9.32;;;19.40;99.90;;;;;;6270364;22;20010;-87
2022/07/22 09:10:06;;;;;;;25.57;10.73;;;19.50;99.90;;;;;;6243243;22;20182;-85
2022/07/22 09:12:34;;;;;;;16.48;9.68;;;19.40;99.90;;;;;;6271187;22;20075;-92
2022/07/22 09:15:02;;;;;;;18.48;10.43;;;19.30;99.90;;;;;;6271145;22;20000;-85
2022/07/22 09:17:38;;;;;;;18.40;9.30;;;19.30;99.90;;;;;;6271933;22;20079;-85
2022/07/22 09:20:30;;;;;;;17.13;9.25;;;19.40;99.90;;;;;;6272622;22;20066;-89
2022/07/22 09:22:56;;;;;;;15.43;10.15;;;19.40;99.90;;;;;;6273702;22;20014;-87
2022/07/22 09:25:26;;;;;;;14.43;9.52;;;19.20;99.90;;;;;;6273449;22;20079;-84
2022/07/22 09:27:54;;;;;;;19.30;9.80;;;19.50;99.90;;;;;;6246144;22;20390;-91
2022/07/22 09:30:23;;;;;;;16.67;10.10;;;19.40;99.90;;;;;;6272291;22;20004;-87
2022/07/22 09:32:51;;;;;;;16.88;9.43;;;19.50;99.90;;;;;;6273327;22;20078;-84
2022/07/22 09:35:19;;;;;;;20.15;9.90;;;19.50;99.90;;;;;;6274302;22;20004;-84
2022/07/22 09:37:53;;;;;;;12.88;9.25;;;19.40;99.90;;;;;;6273187;22;20437;-85
2022/07/22 09:40:24;;;;;;;17.48;9.75;;;19.20;99.90;;;;;;6273470;22;20010;-91
2022/07/22 09:42:52;;;;;;;17.38;11.55;;;19.50;99.90;;;;;;6272396;22;20022;-84
2022/07/22 09:45:20;;;;;;;32.72;12.60;;;19.60;99.90;;;;;;6273957;22;20014;-90
2022/07/22 09:47:47;;;;;;;19.63;10.20;;;19.70;99.90;;;;;;6274334;22;20007;-84
2022/07/22 09:50:22;;;;;;;27.40;11.23;;;19.50;99.90;;;;;;6272653;22;20303;-88
2022/07/22 09:52:49;;;;;;;24.42;12.32;;;19.40;99.90;;;;;;6273615;22;20028;-89
2022/07/22 09:55:18;;;;;;;20.93;12.80;;;19.30;99.90;;;;;;6272244;22;20449;-87
2022/07/22 09:57:45;;;;;;;20.08;13.60;;;19.20;99.90;;;;;;6272799;22;20071;-88
2022/07/22 10:00:12;;;;;;;23.98;14.23;;;19.20;99.90;;;;;;6272355;22;20613;-85
2022/07/22 10:02:56;;;;;;;21.90;14.15;;;19.30;99.90;;;;;;6246160;22;20000;-87
2022/07/22 10:05:30;;;;;;;24.13;13.52;;;19.10;99.90;;;;;;6245805;22;20437;-87
2022/07/22 10:07:57;;;;;;;21.92;14.32;;;19.20;99.90;;;;;;6271949;22;20027;-88
2022/07/22 10:10:26;;;;;;;23.60;13.73;;;19.30;99.90;;;;;;6272281;22;20070;-88
2022/07/22 10:12:54;;;;;;;22.42;14.07;;;19.30;99.90;;;;;;6272917;22;19996;-85
2022/07/22 10:15:21;;;;;;;;;;;19.10;99.90;;;;;;6274098;22;20448;-89
2022/07/22 10:17:49;;;;;;;23.70;15.18;;;19.10;99.90;;;;;;6246608;22;20332;-90
2022/07/22 10:20:19;;;;;;;;;;;19.30;99.90;;;;;;6272744;22;20011;-87
2022/07/22 10:22:52;;;;;;;29.15;16.10;;;19.20;99.90;;;;;;6272386;22;19911;-89
2022/07/22 10:25:19;;;;;;;26.33;15.45;;;19.20;99.90;;;;;;6273386;22;19999;-88
2022/07/22 10:28:01;;;;;;;27.57;16.60;;;19.30;99.90;;;;;;6271718;22;20035;-83
2022/07/22 10:30:33;;;;;;;27.83;16.00;;;19.30;99.90;;;;;;6272188;22;20007;-88
2022/07/22 10:33:05;;;;;;;23.98;15.40;;;19.20;99.90;;;;;;6272345;22;20007;-93
2022/07/22 10:35:31;;;;;;;28.65;15.68;;;19.40;99.90;;;;;;6272783;22;20011;-83
2022/07/22 10:38:00;;;;;;;21.75;15.50;;;19.30;99.90;;;;;;6272309;22;20078;-85
2022/07/22 10:40:47;;;;;;;19.40;14.88;;;19.20;99.90;;;;;;6272330;22;20011;-84
2022/07/22 10:43:14;;;;;;;23.17;14.85;;;19.40;99.90;;;;;;6250950;22;20296;-89
2022/07/22 10:45:50;;;;;;;28.52;16.92;;;19.60;99.90;;;;;;6272364;22;20003;-91
2022/07/22 10:48:24;;;;;;;24.83;15.30;;;19.50;99.90;;;;;;6272517;22;20000;-91
2022/07/22 10:51:04;;;;;;;26.17;15.65;;;19.40;99.90;;;;;;6273785;22;20020;-91
2022/07/22 10:53:41;;;;;;;25.40;15.60;;;19.60;99.90;;;;;;6272125;22;20452;-83
2022/07/22 10:56:11;;;;;;;27.75;16.75;;;19.50;99.90;;;;;;6272639;22;19996;-84
2022/07/22 10:58:38;;;;;;;28.13;16.83;;;19.40;99.90;;;;;;6272337;22;20035;-91
2022/07/22 11:01:09;;;;;;;26.00;16.25;;;19.40;99.90;;;;;;6272657;22;20000;-82
2022/07/22 11:03:38;;;;;;;29.33;17.67;;;19.40;99.90;;;;;;6272414;22;20086;-86
2022/07/22 11:06:22;;;;;;;27.70;16.60;;;19.60;99.90;;;;;;6271921;22;20340;-89
2022/07/22 11:08:52;;;;;;;23.42;15.75;;;19.50;99.90;;;;;;6271681;22;20007;-82
2022/07/22 11:11:18;;;;;;;28.10;17.98;;;19.60;99.90;;;;;;6271220;22;20363;-91
2022/07/22 11:13:45;;;;;;;33.53;19.05;;;19.70;99.90;;;;;;6272235;22;20882;-92
2022/07/22 11:16:18;;;;;;;35.65;18.05;;;19.50;99.90;;;;;;6272691;22;20074;-87
2022/07/22 11:18:58;;;;;;;28.80;18.90;;;19.50;99.90;;;;;;6245070;22;20558;-93
2022/07/22 11:21:26;;;;;;;35.00;19.88;;;19.40;99.90;;;;;;6272905;22;20015;-87
2022/07/22 11:23:56;;;;;;;31.52;18.38;;;19.60;99.90;;;;;;6273908;22;20421;-93
2022/07/22 11:26:36;;;;;;;33.97;21.05;;;19.50;99.90;;;;;;6273752;22;19995;-93
2022/07/22 11:29:02;;;;;;;35.08;17.95;;;19.50;99.90;;;;;;6272479;22;20053;-91
2022/07/22 11:31:28;;;;;;;35.45;21.73;;;19.50;99.90;;;;;;6273268;22;20007;-93
2022/07/22 11:34:11;;;;;;;34.15;19.95;;;19.50;99.90;;;;;;6272676;22;20000;-93
2022/07/22 11:36:43;;;;;;;34.00;21.15;;;19.50;99.90;;;;;;6244147;22;20102;-87
2022/07/22 11:39:10;;;;;;;35.00;20.23;;;19.60;99.90;;;;;;6270684;22;20007;-92
2022/07/22 11:41:36;;;;;;;38.80;21.67;;;19.70;99.90;;;;;;6270701;22;20000;-90
2022/07/22 11:44:02;;;;;;;39.85;23.70;;;19.60;99.90;;;;;;6270689;22;20007;-88
2022/07/22 11:46:35;;;;;;;39.05;22.70;;;19.60;99.90;;;;;;6270736;22;20000;-91
2022/07/22 11:49:01;;;;;;;45.25;23.58;;;19.60;99.90;;;;;;6272223;22;20004;-88
2022/07/22 11:51:30;;;;;;;38.53;22.15;;;19.50;99.90;;;;;;6271805;22;20075;-83
2022/07/22 11:53:56;;;;;;;38.75;21.90;;;19.70;99.90;;;;;;6272464;22;20008;-83
2022/07/22 11:56:21;;;;;;;37.20;21.98;;;19.90;99.90;;;;;;6273068;22;20002;-89
2022/07/22 11:58:49;;;;;;;32.50;19.55;;;20.00;99.90;;;;;;6271364;22;20011;-90
2022/07/22 12:01:17;;;;;;;35.75;20.70;;;20.20;99.90;;;;;;6271426;22;19992;-92
2022/07/22 12:03:47;;;;;;;;;;;19.90;99.90;;;;;;6271175;22;20000;-84
2022/07/22 12:06:15;;;;;;;35.13;19.45;;;19.50;99.90;;;;;;6271394;22;20006;-84
2022/07/22 12:08:52;;;;;;;32.17;18.73;;;19.50;99.90;;;;;;6271342;22;20083;-89
2022/07/22 12:11:19;;;;;;;38.75;18.58;;;19.70;99.90;;;;;;6271427;22;20032;-90
2022/07/22 12:13:47;;;;;;;33.17;18.73;;;19.70;99.90;;;;;;6270937;22;20344;-87
2022/07/22 12:16:24;;;;;;;37.10;18.73;;;19.70;99.90;;;;;;6271013;22;20057;-89
2022/07/22 12:18:51;;;;;;;;;;;20.00;99.90;;;;;;6271356;22;19999;-89
2022/07/22 12:21:17;;;;;;;33.00;16.42;;;20.40;99.90;;;;;;6270442;22;20229;-90
2022/07/22 12:23:50;;;;;;;32.83;16.70;;;20.50;99.90;;;;;;6270699;22;20011;-89
2022/07/22 12:26:16;;;;;;;30.98;16.85;;;20.30;99.90;;;;;;6271476;22;20011;-85
2022/07/22 12:28:42;;;;;;;31.98;17.40;;;20.00;99.90;;;;;;6271397;22;19996;-86
2022/07/22 12:31:07;;;;;;;30.52;16.30;;;20.00;99.90;;;;;;6271480;22;20041;-89
2022/07/22 12:33:33;;;;;;;31.77;16.15;;;20.00;99.90;;;;;;6271689;22;20061;-84
2022/07/22 12:36:07;;;;;;;34.35;16.35;;;20.00;99.90;;;;;;6271300;22;20329;-84